createdAt,value
2018-12-13T00:02:17.900Z,91.00
2018-12-13T00:04:45.541Z,89.94
2018-12-13T00:07:13.126Z,90.26
2018-12-13T00:09:40.704Z,90.20
2018-12-13T00:12:08.308Z,90.35
2018-12-13T00:14:35.909Z,90.10
2018-12-13T00:17:03.673Z,90.75
2018-12-13T00:19:31.332Z,90.10
2018-12-13T00:21:58.941Z,90.67
2018-12-13T00:24:26.660Z,90.33
2018-12-13T00:26:54.380Z,90.99
2018-12-13T00:29:22.094Z,91.29
2018-12-13T00:31:49.753Z,90.68
2018-12-13T00:34:17.336Z,91.10
2018-12-13T00:36:44.947Z,90.69
2018-12-13T00:39:12.636Z,90.57
2018-12-13T00:41:40.293Z,90.25
2018-12-13T00:44:08.021Z,90.22
2018-12-13T00:46:35.696Z,90.26
2018-12-13T00:49:03.281Z,90.36
2018-12-13T00:51:30.956Z,89.70
2018-12-13T00:53:58.621Z,89.84
2018-12-13T00:56:26.284Z,89.81
2018-12-13T00:58:53.864Z,89.15
2018-12-13T01:01:21.499Z,89.13
2018-12-13T01:03:49.173Z,89.57
2018-12-13T01:06:16.918Z,89.36
2018-12-13T01:08:44.592Z,89.71
2018-12-13T01:11:12.265Z,89.61
2018-12-13T01:13:39.872Z,89.94
2018-12-13T01:16:09.404Z,89.85
2018-12-13T01:18:37.032Z,89.26
2018-12-13T01:21:04.752Z,89.57
2018-12-13T01:23:32.352Z,88.94
2018-12-13T01:25:59.974Z,89.14
2018-12-13T01:28:27.648Z,89.69
2018-12-13T01:30:55.231Z,89.48
2018-12-13T01:33:22.860Z,89.45
2018-12-13T01:35:50.529Z,90.01
2018-12-13T01:38:18.189Z,89.52
2018-12-13T01:40:45.848Z,89.71
2018-12-13T01:43:13.605Z,89.17
2018-12-13T01:45:41.274Z,89.48
2018-12-13T01:48:09.208Z,89.39
2018-12-13T01:50:36.788Z,89.72
2018-12-13T01:53:04.578Z,89.08
2018-12-13T01:55:32.232Z,89.25
2018-12-13T01:58:01.157Z,88.69
2018-12-13T02:00:28.892Z,88.81
2018-12-13T02:02:56.551Z,88.77
2018-12-13T02:05:24.224Z,89.25
2018-12-13T02:07:51.879Z,89.14
2018-12-13T02:10:19.468Z,89.07
2018-12-13T02:12:47.055Z,89.07
2018-12-13T02:15:14.768Z,88.66
2018-12-13T02:17:42.436Z,89.24
2018-12-13T02:20:10.092Z,88.69
2018-12-13T02:22:37.677Z,89.19
2018-12-13T02:25:06.278Z,88.90
2018-12-13T02:27:33.911Z,89.44
2018-12-13T02:30:01.573Z,89.37
2018-12-13T02:32:29.233Z,89.00
2018-12-13T02:34:56.898Z,89.17
2018-12-13T02:37:24.556Z,89.97
2018-12-13T02:39:52.168Z,89.93
2018-12-13T02:42:19.784Z,89.92
2018-12-13T02:44:47.444Z,89.47
2018-12-13T02:47:15.172Z,89.62
2018-12-13T02:49:42.869Z,89.70
2018-12-13T02:52:10.536Z,89.52
2018-12-13T02:54:38.203Z,89.16
2018-12-13T02:57:05.864Z,88.64
2018-12-13T02:59:33.531Z,89.01
2018-12-13T03:02:01.114Z,89.21
2018-12-13T03:04:28.853Z,89.00
2018-12-13T03:06:56.509Z,89.22
2018-12-13T03:09:24.171Z,89.17
2018-12-13T03:11:51.840Z,89.38
2018-12-13T03:14:19.505Z,88.70
2018-12-13T03:16:47.168Z,88.83
2018-12-13T03:19:14.825Z,88.99
2018-12-13T03:21:42.488Z,89.45
2018-12-13T03:24:10.072Z,88.19
2018-12-13T03:26:37.733Z,88.70
2018-12-13T03:29:05.477Z,88.78
2018-12-13T03:31:33.147Z,88.51
2018-12-13T03:34:00.804Z,88.50
2018-12-13T03:36:28.404Z,88.18
2018-12-13T03:38:56.026Z,88.97
2018-12-13T03:41:23.689Z,88.46
2018-12-13T03:43:51.281Z,89.07
2018-12-13T03:46:18.911Z,88.77
2018-12-13T03:48:46.497Z,88.71
2018-12-13T03:51:14.241Z,88.61
2018-12-13T03:53:41.903Z,88.60
2018-12-13T03:56:09.574Z,88.99
2018-12-13T03:58:37.232Z,88.68
2018-12-13T04:01:04.888Z,89.18
2018-12-13T04:03:32.469Z,89.02
2018-12-13T04:06:00.076Z,89.11
2018-12-13T04:08:27.658Z,89.08
2018-12-13T04:10:55.324Z,89.58
2018-12-13T04:13:22.995Z,88.99
2018-12-13T04:15:50.679Z,89.05
2018-12-13T04:18:18.638Z,89.43
2018-12-13T04:20:46.300Z,89.50
2018-12-13T04:23:13.960Z,88.73
2018-12-13T04:25:41.622Z,89.27
2018-12-13T04:28:09.272Z,89.85
2018-12-13T04:30:36.949Z,89.35
2018-12-13T04:33:04.580Z,89.29
2018-12-13T04:35:32.192Z,89.12
2018-12-13T04:37:59.805Z,89.48
2018-12-13T04:40:27.455Z,89.38
2018-12-13T04:42:55.159Z,89.36
2018-12-13T04:45:22.750Z,89.54
2018-12-13T04:47:50.380Z,89.27
2018-12-13T04:50:18.044Z,89.30
2018-12-13T04:52:45.813Z,89.26
2018-12-13T04:55:13.824Z,89.45
2018-12-13T04:57:41.430Z,89.15
2018-12-13T05:00:09.133Z,88.89
2018-12-13T05:02:36.784Z,87.85
2018-12-13T05:05:04.844Z,87.76
2018-12-13T05:07:32.511Z,86.98
2018-12-13T05:10:00.167Z,87.68
2018-12-13T05:12:27.827Z,87.63
2018-12-13T05:14:55.493Z,87.29
2018-12-13T05:17:23.600Z,87.94
2018-12-13T05:19:51.397Z,87.54
2018-12-13T05:22:18.991Z,88.20
2018-12-13T05:24:46.658Z,87.67
2018-12-13T05:27:14.322Z,87.88
2018-12-13T05:29:41.928Z,87.68
2018-12-13T05:32:09.544Z,87.94
2018-12-13T05:34:37.209Z,88.13
2018-12-13T05:37:04.868Z,88.12
2018-12-13T05:39:32.531Z,88.33
2018-12-13T05:42:00.195Z,88.38
2018-12-13T05:44:27.861Z,88.54
2018-12-13T05:46:55.521Z,88.30
2018-12-13T05:49:23.184Z,88.39
2018-12-13T05:51:50.844Z,88.33
2018-12-13T05:54:18.512Z,87.88
2018-12-13T05:56:46.092Z,88.01
2018-12-13T05:59:13.717Z,88.28
2018-12-13T06:01:41.392Z,88.42
2018-12-13T06:04:09.056Z,89.09
2018-12-13T06:06:36.661Z,88.46
2018-12-13T06:09:06.226Z,88.64
2018-12-13T06:11:33.881Z,88.65
2018-12-13T06:14:01.625Z,89.04
2018-12-13T06:16:29.286Z,88.63
2018-12-13T06:18:56.984Z,89.18
2018-12-13T06:21:24.645Z,88.87
2018-12-13T06:23:52.307Z,88.61
2018-12-13T06:26:19.973Z,88.69
2018-12-13T06:28:47.592Z,88.57
2018-12-13T06:31:15.291Z,88.86
2018-12-13T06:33:42.972Z,89.06
2018-12-13T06:36:10.624Z,89.20
2018-12-13T06:38:38.293Z,88.88
2018-12-13T06:41:05.949Z,89.19
2018-12-13T06:43:33.612Z,88.81
2018-12-13T06:46:01.273Z,88.67
2018-12-13T06:48:28.935Z,89.30
2018-12-13T06:50:56.600Z,88.85
2018-12-13T06:53:24.260Z,88.82
2018-12-13T06:55:51.924Z,89.07
2018-12-13T06:58:19.593Z,88.98
2018-12-13T07:00:47.176Z,89.21
2018-12-13T07:03:14.816Z,89.01
2018-12-13T07:05:42.475Z,88.46
2018-12-13T07:08:10.120Z,89.06
2018-12-13T07:10:37.805Z,88.78
2018-12-13T07:13:05.468Z,89.08
2018-12-13T07:15:33.125Z,89.21
2018-12-13T07:18:00.791Z,88.96
2018-12-13T07:20:28.543Z,89.42
2018-12-13T07:22:56.220Z,89.25
2018-12-13T07:25:23.884Z,88.77
2018-12-13T07:27:51.540Z,88.72
2018-12-13T07:30:19.204Z,88.63
2018-12-13T07:32:46.869Z,88.68
2018-12-13T07:35:14.536Z,88.64
2018-12-13T07:37:42.183Z,88.74
2018-12-13T07:40:09.856Z,88.95
2018-12-13T07:42:37.459Z,88.95
2018-12-13T07:45:05.494Z,88.49
2018-12-13T07:47:33.153Z,87.95
2018-12-13T07:50:01.632Z,87.57
2018-12-13T07:52:29.219Z,88.71
2018-12-13T07:54:56.856Z,88.05
2018-12-13T07:57:24.613Z,87.95
2018-12-13T07:59:52.285Z,88.31
2018-12-13T08:02:19.948Z,88.24
2018-12-13T08:04:47.613Z,88.07
2018-12-13T08:07:15.236Z,87.79
2018-12-13T08:09:42.941Z,88.07
2018-12-13T08:12:10.601Z,88.64
2018-12-13T08:14:38.253Z,87.52
2018-12-13T08:17:05.928Z,87.83
2018-12-13T08:19:33.536Z,88.18
2018-12-13T08:22:01.118Z,88.36
2018-12-13T08:24:28.725Z,88.60
2018-12-13T08:26:56.376Z,88.84
2018-12-13T08:29:24.032Z,88.55
2018-12-13T08:31:51.705Z,88.71
2018-12-13T08:34:19.362Z,88.43
2018-12-13T08:36:46.940Z,88.80
2018-12-13T08:39:14.548Z,88.71
2018-12-13T08:41:42.141Z,89.14
2018-12-13T08:44:09.808Z,88.64
2018-12-13T08:46:37.399Z,88.66
2018-12-13T08:49:05.140Z,88.42
2018-12-13T08:51:32.795Z,88.14
2018-12-13T08:54:00.460Z,88.64
2018-12-13T08:56:28.126Z,87.55
2018-12-13T08:58:55.992Z,87.75
2018-12-13T09:01:23.651Z,87.44
2018-12-13T09:03:51.307Z,87.53
2018-12-13T09:06:18.912Z,87.91
2018-12-13T09:08:46.540Z,87.07
2018-12-13T09:11:14.152Z,88.34
2018-12-13T09:13:41.764Z,88.18
2018-12-13T09:16:09.433Z,87.58
2018-12-13T09:18:37.148Z,87.96
2018-12-13T09:21:04.757Z,87.95
2018-12-13T09:23:32.416Z,87.73
2018-12-13T09:26:00.075Z,87.50
2018-12-13T09:28:27.832Z,87.21
2018-12-13T09:30:55.509Z,86.92
2018-12-13T09:33:23.174Z,87.46
2018-12-13T09:35:50.836Z,87.50
2018-12-13T09:38:18.499Z,87.35
2018-12-13T09:40:46.156Z,87.35
2018-12-13T09:43:13.787Z,87.08
2018-12-13T09:45:41.395Z,87.16
2018-12-13T09:48:09.034Z,87.58
2018-12-13T09:50:36.704Z,87.24
2018-12-13T09:53:04.359Z,87.46
2018-12-13T09:55:32.037Z,87.04
2018-12-13T09:57:59.705Z,86.90
2018-12-13T10:00:27.465Z,86.72
2018-12-13T10:02:55.215Z,87.00
2018-12-13T10:05:22.892Z,86.70
2018-12-13T10:07:50.557Z,87.09
2018-12-13T10:10:18.216Z,86.66
2018-12-13T10:12:46.564Z,86.42
2018-12-13T10:15:14.204Z,85.78
2018-12-13T10:17:41.824Z,86.13
2018-12-13T10:20:09.456Z,85.80
2018-12-13T10:22:37.072Z,86.06
2018-12-13T10:25:05.256Z,85.89
2018-12-13T10:27:32.873Z,85.58
2018-12-13T10:30:00.545Z,85.60
2018-12-13T10:32:28.209Z,85.43
2018-12-13T10:34:55.879Z,84.75
2018-12-13T10:37:23.537Z,84.84
2018-12-13T10:39:51.197Z,84.65
2018-12-13T10:42:18.860Z,84.45
2018-12-13T10:44:46.520Z,84.42
2018-12-13T10:47:14.190Z,84.66
2018-12-13T10:49:41.849Z,84.14
2018-12-13T10:52:09.512Z,83.52
2018-12-13T10:54:37.263Z,83.72
2018-12-13T10:57:04.944Z,83.44
2018-12-13T10:59:32.598Z,83.63
2018-12-13T11:02:02.006Z,83.71
2018-12-13T11:04:29.601Z,83.54
2018-12-13T11:06:57.332Z,83.45
2018-12-13T11:09:24.996Z,83.47
2018-12-13T11:11:52.588Z,83.43
2018-12-13T11:14:20.220Z,83.50
2018-12-13T11:16:47.826Z,83.33
2018-12-13T11:19:15.439Z,83.22
2018-12-13T11:21:43.032Z,83.20
2018-12-13T11:24:10.688Z,83.65
2018-12-13T11:26:38.278Z,83.60
2018-12-13T11:29:17.664Z,82.80
2018-12-13T11:31:45.328Z,83.00
2018-12-13T11:34:13.092Z,82.78
2018-12-13T11:36:40.760Z,82.67
2018-12-13T11:39:08.380Z,83.12
2018-12-13T11:41:36.168Z,82.59
2018-12-13T11:44:03.852Z,82.92
2018-12-13T11:46:32.455Z,82.54
2018-12-13T11:49:00.118Z,81.90
2018-12-13T11:51:28.409Z,82.02
2018-12-13T11:53:56.164Z,82.30
2018-12-13T11:56:23.802Z,82.23
2018-12-13T11:58:51.460Z,82.17
2018-12-13T12:01:19.125Z,82.45
2018-12-13T12:03:46.736Z,82.38
2018-12-13T12:06:14.348Z,82.00
2018-12-13T12:08:42.003Z,82.33
2018-12-13T12:11:09.598Z,81.70
2018-12-13T12:13:37.337Z,81.87
2018-12-13T12:16:04.972Z,81.78
2018-12-13T12:18:32.665Z,81.33
2018-12-13T12:21:00.324Z,81.18
2018-12-13T12:23:27.988Z,81.34
2018-12-13T12:25:55.656Z,81.59
2018-12-13T12:28:23.311Z,81.64
2018-12-13T12:30:50.976Z,81.62
2018-12-13T12:33:18.640Z,81.76
2018-12-13T12:35:46.407Z,81.69
2018-12-13T12:38:14.044Z,81.47
2018-12-13T12:40:41.733Z,81.09
2018-12-13T12:43:09.397Z,81.10
2018-12-13T12:45:37.053Z,81.16
2018-12-13T12:48:05.336Z,81.26
2018-12-13T12:50:33.205Z,81.47
2018-12-13T12:53:00.801Z,81.68
2018-12-13T12:55:28.523Z,81.52
2018-12-13T12:57:56.193Z,81.87
2018-12-13T13:00:23.855Z,81.38
2018-12-13T13:02:51.965Z,80.62
2018-12-13T13:05:19.585Z,80.64
2018-12-13T13:07:47.253Z,80.14
2018-12-13T13:10:14.865Z,80.52
2018-12-13T13:12:42.459Z,80.42
2018-12-13T13:15:10.072Z,80.44
2018-12-13T13:17:37.700Z,80.60
2018-12-13T13:20:05.464Z,80.23
2018-12-13T13:22:33.060Z,80.54
2018-12-13T13:25:00.878Z,80.07
2018-12-13T13:27:28.478Z,80.68
2018-12-13T13:29:56.222Z,79.85
2018-12-13T13:32:23.881Z,79.50
2018-12-13T13:34:51.544Z,80.14
2018-12-13T13:37:19.156Z,79.60
2018-12-13T13:39:46.768Z,79.57
2018-12-13T13:42:14.432Z,79.56
2018-12-13T13:44:42.265Z,78.95
2018-12-13T13:47:10.621Z,78.76
2018-12-13T13:49:38.241Z,78.73
2018-12-13T13:52:05.907Z,79.22
2018-12-13T13:54:33.562Z,79.26
2018-12-13T13:57:01.229Z,78.64
2018-12-13T13:59:28.889Z,78.95
2018-12-13T14:01:56.557Z,79.15
2018-12-13T14:04:24.220Z,79.20
2018-12-13T14:06:51.889Z,78.70
2018-12-13T14:09:19.541Z,79.15
2018-12-13T14:11:47.200Z,79.45
2018-12-13T14:14:14.958Z,78.88
2018-12-13T14:16:42.633Z,78.53
2018-12-13T14:19:10.296Z,78.78
2018-12-13T14:21:37.951Z,79.57
2018-12-13T14:24:05.620Z,79.96
2018-12-13T14:26:33.380Z,80.11
2018-12-13T14:29:01.052Z,80.59
2018-12-13T14:31:28.712Z,80.77
2018-12-13T14:33:56.376Z,81.09
2018-12-13T14:36:24.040Z,81.48
2018-12-13T14:38:51.656Z,81.57
2018-12-13T14:41:19.268Z,81.77
2018-12-13T14:43:46.924Z,82.20
2018-12-13T14:46:14.515Z,82.44
2018-12-13T14:48:42.123Z,82.29
2018-12-13T14:51:09.717Z,82.28
2018-12-13T14:53:37.373Z,81.87
2018-12-13T14:56:05.027Z,82.36
2018-12-13T14:58:32.700Z,82.39
2018-12-13T15:01:00.294Z,83.00
2018-12-13T15:03:28.020Z,82.23
2018-12-13T15:05:55.604Z,82.67
2018-12-13T15:08:23.240Z,82.50
2018-12-13T15:10:50.834Z,82.17
2018-12-13T15:13:18.472Z,82.50
2018-12-13T15:15:46.128Z,82.00
2018-12-13T15:18:14.716Z,82.40
2018-12-13T15:20:42.382Z,81.19
2018-12-13T15:23:10.040Z,81.40
2018-12-13T15:25:37.721Z,81.62
2018-12-13T15:28:05.372Z,81.79
2018-12-13T15:30:32.976Z,81.21
2018-12-13T15:33:00.591Z,81.20
2018-12-13T15:35:28.256Z,81.15
2018-12-13T15:37:55.836Z,81.24
2018-12-13T15:40:23.472Z,80.74
2018-12-13T15:42:51.100Z,81.22
2018-12-13T15:45:19.852Z,81.07
2018-12-13T15:47:47.579Z,81.05
2018-12-13T15:50:15.252Z,80.80
2018-12-13T15:52:42.919Z,81.31
2018-12-13T15:55:10.533Z,81.14
2018-12-13T15:57:38.140Z,80.74
2018-12-13T16:00:09.093Z,80.41
2018-12-13T16:02:36.740Z,80.02
2018-12-13T16:05:05.532Z,80.14
2018-12-13T16:07:33.200Z,80.39
2018-12-13T16:10:03.813Z,80.66
2018-12-13T16:12:30.514Z,80.10
2018-12-13T16:17:37.468Z,80.61
2018-12-13T16:20:05.947Z,79.59
2018-12-13T16:22:33.702Z,80.10
2018-12-13T16:25:01.380Z,80.51
2018-12-13T16:27:29.016Z,80.38
2018-12-13T16:29:56.880Z,79.63
2018-12-13T16:32:24.572Z,80.50
2018-12-13T16:34:52.347Z,80.06
2018-12-13T16:37:19.976Z,80.75
2018-12-13T16:39:47.584Z,80.73
2018-12-13T16:42:15.225Z,80.67
2018-12-13T16:44:42.890Z,80.98
2018-12-13T16:47:10.535Z,80.72
2018-12-13T16:49:38.218Z,80.71
2018-12-13T16:52:06.080Z,80.67
2018-12-13T16:54:33.741Z,81.33
2018-12-13T16:57:01.409Z,81.19
2018-12-13T16:59:28.995Z,80.72
2018-12-13T17:01:56.596Z,80.44
2018-12-13T17:04:24.292Z,80.53
2018-12-13T17:06:51.955Z,80.90
2018-12-13T17:09:19.572Z,80.78
2018-12-13T17:11:47.185Z,81.21
2018-12-13T17:14:14.842Z,80.86
2018-12-13T17:16:42.506Z,81.21
2018-12-13T17:19:10.164Z,81.80
2018-12-13T17:21:37.824Z,82.20
2018-12-13T17:24:05.494Z,82.29
2018-12-13T17:26:33.096Z,81.85
2018-12-13T17:29:00.725Z,82.35
2018-12-13T17:31:28.380Z,81.78
2018-12-13T17:33:56.036Z,82.15
2018-12-13T17:36:23.705Z,82.58
2018-12-13T17:38:51.369Z,82.36
2018-12-13T17:41:18.973Z,82.29
2018-12-13T17:43:46.588Z,82.08
2018-12-13T17:46:14.208Z,82.48
2018-12-13T17:48:41.920Z,82.20
2018-12-13T17:51:09.585Z,82.42
2018-12-13T17:53:37.244Z,82.69
2018-12-13T17:56:04.833Z,82.61
2018-12-13T17:58:32.468Z,82.39
2018-12-13T18:01:00.132Z,82.74
2018-12-13T18:03:27.896Z,82.78
2018-12-13T18:05:55.551Z,81.93
2018-12-13T18:08:23.218Z,82.71
2018-12-13T18:10:50.896Z,82.44
2018-12-13T18:13:18.650Z,82.94
2018-12-13T18:15:46.385Z,82.96
2018-12-13T18:18:13.996Z,82.27
2018-12-13T18:20:41.585Z,82.50
2018-12-13T18:23:09.200Z,83.03
2018-12-13T18:25:36.865Z,82.53
2018-12-13T18:28:04.476Z,83.10
2018-12-13T18:30:32.085Z,82.23
2018-12-13T18:32:59.744Z,81.91
2018-12-13T18:35:27.412Z,82.56
2018-12-13T18:37:55.077Z,82.58
2018-12-13T18:40:22.733Z,81.70
2018-12-13T18:42:50.397Z,82.28
2018-12-13T18:45:19.992Z,82.29
2018-12-13T18:47:47.872Z,82.00
2018-12-13T18:50:15.540Z,81.72
2018-12-13T18:52:43.203Z,82.16
2018-12-13T18:55:10.964Z,81.44
2018-12-13T18:57:38.628Z,81.67
2018-12-13T19:00:07.213Z,81.37
2018-12-13T19:02:34.878Z,81.71
2018-12-13T19:05:02.541Z,81.71
2018-12-13T19:07:30.204Z,81.50
2018-12-13T19:09:57.860Z,81.63
2018-12-13T19:12:25.528Z,81.84
2018-12-13T19:14:53.192Z,81.46
2018-12-13T19:17:21.056Z,81.01
2018-12-13T19:19:48.664Z,81.38
2018-12-13T19:22:16.276Z,81.38
2018-12-13T19:24:43.948Z,81.55
2018-12-13T19:27:11.537Z,81.75
2018-12-13T19:29:39.176Z,81.31
2018-12-13T19:32:06.829Z,80.99
2018-12-13T19:34:34.492Z,81.00
2018-12-13T19:37:02.137Z,81.09
2018-12-13T19:39:29.753Z,81.55
2018-12-13T19:41:57.381Z,81.07
2018-12-13T19:44:24.998Z,81.03
2018-12-13T19:46:52.581Z,81.35
2018-12-13T19:49:20.208Z,81.38
2018-12-13T19:51:47.820Z,81.53
2018-12-13T19:54:15.404Z,81.61
2018-12-13T19:56:43.052Z,81.92
2018-12-13T19:59:10.709Z,81.75
2018-12-13T20:01:38.368Z,81.83
2018-12-13T20:04:06.243Z,80.73
2018-12-13T20:06:33.901Z,81.22
2018-12-13T20:09:01.569Z,81.29
2018-12-13T20:11:29.172Z,81.49
2018-12-13T20:13:56.789Z,81.13
2018-12-13T20:16:24.456Z,81.23
2018-12-13T20:18:53.962Z,81.59
2018-12-13T20:21:21.628Z,81.00
2018-12-13T20:23:49.272Z,80.43
2018-12-13T20:26:16.943Z,80.59
2018-12-13T20:28:44.534Z,80.42
2018-12-13T20:31:12.169Z,80.90
2018-12-13T20:33:39.749Z,81.01
2018-12-13T20:36:07.392Z,80.44
2018-12-13T20:38:34.975Z,80.11
2018-12-13T20:41:02.892Z,80.24
2018-12-13T20:43:30.585Z,80.09
2018-12-13T20:45:58.247Z,80.57
2018-12-13T20:48:26.121Z,80.81
2018-12-13T20:50:54.297Z,80.84
2018-12-13T20:53:21.897Z,81.12
2018-12-13T20:55:49.929Z,81.15
2018-12-13T20:58:17.593Z,81.05
2018-12-13T21:00:45.248Z,81.05
2018-12-13T21:03:12.911Z,80.78
2018-12-13T21:05:40.576Z,81.26
2018-12-13T21:08:09.644Z,81.16
2018-12-13T21:10:39.223Z,81.56
2018-12-13T21:13:06.877Z,81.11
2018-12-13T21:15:34.516Z,81.42
2018-12-13T21:18:02.121Z,81.70
2018-12-13T21:20:30.039Z,81.74
2018-12-13T21:22:57.907Z,81.75
2018-12-13T21:25:25.564Z,81.61
2018-12-13T21:27:53.233Z,82.35
2018-12-13T21:30:21.113Z,81.82
2018-12-13T21:32:48.720Z,82.75
2018-12-13T21:35:16.306Z,82.50
2018-12-13T21:37:43.911Z,83.17
2018-12-13T21:40:11.497Z,83.47
2018-12-13T21:42:39.203Z,84.40
2018-12-13T21:45:06.877Z,82.97
2018-12-13T21:47:34.535Z,82.76
2018-12-13T21:50:02.196Z,81.93
2018-12-13T21:52:29.861Z,82.08
2018-12-13T21:54:57.524Z,82.30
2018-12-13T21:57:25.479Z,83.75
2018-12-13T21:59:54.398Z,83.25
2018-12-13T22:02:22.253Z,82.92
2018-12-13T22:04:49.963Z,82.27
2018-12-13T22:07:17.740Z,82.68
2018-12-13T22:09:45.660Z,82.54
2018-12-13T22:12:13.241Z,82.65
2018-12-13T22:14:40.901Z,82.56
2018-12-13T22:17:08.541Z,82.95
2018-12-13T22:19:36.197Z,83.01
2018-12-13T22:22:03.832Z,82.92
2018-12-13T22:24:31.524Z,83.29
2018-12-13T22:26:59.184Z,83.79
2018-12-13T22:29:26.855Z,83.52
2018-12-13T22:31:54.888Z,83.35
2018-12-13T22:34:22.497Z,84.07
2018-12-13T22:36:50.424Z,84.13
2018-12-13T22:39:18.116Z,84.34
2018-12-13T22:41:45.782Z,83.89
2018-12-13T22:44:13.388Z,84.10
2018-12-13T22:46:41.004Z,84.20
2018-12-13T22:49:08.669Z,83.25
2018-12-13T22:51:36.255Z,83.08
2018-12-13T22:54:03.900Z,83.57
2018-12-13T22:56:31.552Z,83.83
2018-12-13T22:59:00.032Z,83.50
2018-12-13T23:01:27.801Z,83.79
2018-12-13T23:03:55.464Z,83.85
2018-12-13T23:06:23.945Z,83.90
2018-12-13T23:08:51.608Z,83.83
2018-12-13T23:11:19.272Z,84.26
2018-12-13T23:13:46.934Z,83.57
2018-12-13T23:16:14.593Z,83.75
2018-12-13T23:18:42.256Z,83.40
2018-12-13T23:21:09.923Z,83.51
2018-12-13T23:23:37.548Z,83.02
2018-12-13T23:26:05.144Z,82.73
2018-12-13T23:28:32.808Z,83.03
2018-12-13T23:31:00.472Z,82.98
2018-12-13T23:33:28.136Z,82.79
2018-12-13T23:35:55.745Z,83.08
2018-12-13T23:38:23.352Z,82.42
2018-12-13T23:40:51.021Z,82.02
2018-12-13T23:43:18.676Z,81.97
2018-12-13T23:45:46.349Z,80.27
2018-12-13T23:48:14.003Z,80.56
2018-12-13T23:50:41.668Z,80.53
2018-12-13T23:53:09.295Z,80.14
2018-12-13T23:55:36.994Z,80.36
2018-12-13T23:58:04.663Z,81.01
